Flight Track Log - Related Links

Times and Time Zones

All times are in EDT time to prevent confusion due to time zone crossing. See the DAL1364 flight status page for this flight to view local times or setup timezone preferences in your user account.

Time Position Orientation Groundspeed Altitude Reporting Facility
EDT Latitude Longitude Course Direction KTS MPH feet Rate Location/Type
Thu 08:53:19 PM 33.6500 -84.3833 259° West 163 188 2,500  Level Atlanta TRACON
Thu 08:54:19 PM 33.6667 -84.3167 73° East 242 278 4,300 2,053 Climbing Atlanta TRACON
Thu 08:55:00 PM 33.7569 -84.8085 291° West  Level Estimated
Thu 08:55:13 PM 33.7333 -84.2833 23° Northeast 300 345 6,400  Level Atlanta TRACON
Thu 08:56:00 PM 33.7931 -84.9438 259° West  Level FlightAware Approximate
Thu 08:56:13 PM 33.8000 -84.3000 348° North 304 350 9,000  Level Atlanta TRACON
Thu 08:57:00 PM 33.7721 -85.0773 259° West  Level FlightAware Approximate
Thu 08:58:00 PM 33.7509 -85.2107 259° West  Level FlightAware Approximate
Thu 08:58:34 PM 33.8100 -84.5489 273° West 318 366 13,500  Level Atlanta Center
Thu 08:59:34 PM 33.8114 -84.6514 271° West 331 381 15,300 1,900 Climbing Atlanta Center
Thu 09:00:34 PM 33.8108 -84.7614 270° West 331 381 17,300 1,450 Climbing Atlanta Center
Thu 09:01:34 PM 33.8058 -84.8864 267° West 353 406 18,200 950 Climbing Atlanta Center
Thu 09:02:34 PM 33.7944 -85.0161 264° West 380 437 19,200 1,250 Climbing Atlanta Center
Thu 09:03:34 PM 33.7767 -85.1483 261° West 405 466 20,700 1,350 Climbing Atlanta Center
Thu 09:04:34 PM 33.7775 -85.2883 270° West 411 473 21,900 1,250 Climbing Atlanta Center
Thu 09:05:34 PM 33.8031 -85.4289 282° West 424 488 23,200 1,250 Climbing Atlanta Center
Thu 09:06:34 PM 33.8283 -85.5792 281° West 429 494 24,400 1,050 Climbing Atlanta Center
Thu 09:07:34 PM 33.8622 -85.7200 286° West 429 494 25,300 800 Climbing Atlanta Center
Thu 09:08:34 PM 33.9000 -85.8408 291° West 441 507 26,000 350 Climbing Atlanta Center
Thu 09:09:34 PM 33.9419 -85.9769 290° West 436 502 26,000  Level Atlanta Center
Thu 09:10:34 PM 33.9875 -86.1133 292° West 436 502 26,000  Level Atlanta Center
Thu 09:11:34 PM 34.0228 -86.2494 287° West 436 502 26,000  Level Atlanta Center
Thu 09:12:34 PM 34.0639 -86.3908 289° West 436 502 26,000  Level Atlanta Center
Thu 09:13:34 PM 34.1011 -86.5275 288° West 436 502 26,000  Level Atlanta Center
Thu 09:14:39 PM 34.1472 -86.6903 289° West 439 505 26,000  Level Memphis Center
Thu 09:15:40 PM 34.1864 -86.8303 289° West 439 505 26,000  Level Memphis Center
Thu 09:16:42 PM 34.2253 -86.9697 289° West 439 505 26,000  Level Memphis Center
Thu 09:17:44 PM 34.2639 -87.1100 288° West 439 505 26,000  Level Memphis Center
Thu 09:18:46 PM 34.3022 -87.2481 289° West 439 505 26,000  Level Memphis Center
Thu 09:19:47 PM 34.3492 -87.4150 289° West 439 505 26,000  Level Memphis Center
Thu 09:20:49 PM 34.3831 -87.5567 286° West 439 505 26,000  Level Memphis Center
Thu 09:21:51 PM 34.4244 -87.6989 289° West 442 509 26,000  Level Memphis Center
Thu 09:22:53 PM 34.4625 -87.8386 288° West 442 509 26,000  Level Memphis Center
Thu 09:23:54 PM 34.5042 -87.9944 288° West 442 509 26,000  Level Memphis Center
Thu 09:24:56 PM 34.5419 -88.1369 288° West 442 509 26,000  Level Memphis Center
Thu 09:25:58 PM 34.5797 -88.2800 288° West 443 510 26,000  Level Memphis Center
Thu 09:26:59 PM 34.6175 -88.4233 288° West 445 512 26,000  Level Memphis Center
Thu 09:28:01 PM 34.6586 -88.5806 288° West 447 514 26,000  Level Memphis Center
Thu 09:29:03 PM 34.6958 -88.7247 287° West 447 514 26,000  Level Memphis Center
Thu 09:30:04 PM 34.7333 -88.8706 287° West 447 514 26,000  Level Memphis Center
Thu 09:31:06 PM 34.7708 -89.0150 288° West 449 517 26,000  Level Memphis Center
Thu 09:32:07 PM 34.8086 -89.1592 288° West 449 517 26,000  Level Memphis Center
Thu 09:33:09 PM 34.8444 -89.3039 287° West 449 517 26,000  Level Memphis Center
Thu 09:34:11 PM 34.8878 -89.4750 287° West 448 516 26,000  Level Memphis Center
Thu 09:35:12 PM 34.9239 -89.6158 287° West 447 514 26,000  Level Memphis Center
Thu 09:36:14 PM 34.9606 -89.7556 288° West 447 514 26,000  Level Memphis Center
Thu 09:37:16 PM 34.9947 -89.8972 286° West 447 514 26,000  Level Memphis Center
Thu 09:38:17 PM 35.0317 -90.0392 288° West 447 514 26,000  Level Memphis Center
Thu 09:39:19 PM 35.0869 -90.2081 292° West 447 514 26,000  Level Memphis Center
Thu 09:40:21 PM 35.1314 -90.3483 291° West 447 514 26,000  Level Memphis Center
Thu 09:41:22 PM 35.1744 -90.4889 291° West 446 513 26,000  Level Memphis Center
Thu 09:42:24 PM 35.2200 -90.6294 292° West 446 513 26,000  Level Memphis Center
Thu 09:43:26 PM 35.2628 -90.7692 291° West 446 513 26,000  Level Memphis Center
Thu 09:44:27 PM 35.3056 -90.9089 291° West 444 511 26,000  Level Memphis Center
Thu 09:45:29 PM 35.3494 -91.0461 291° West 438 504 26,000  Level Memphis Center
Thu 09:46:30 PM 35.3953 -91.2025 290° West 437 503 26,000  Level Memphis Center
Thu 09:47:32 PM 35.4425 -91.3503 291° West 436 502 26,000  Level Memphis Center
Thu 09:48:33 PM 35.4806 -91.4800 290° West 436 502 26,000  Level Memphis Center
Thu 09:49:35 PM 35.5239 -91.6197 291° West 437 503 26,000  Level Memphis Center
Thu 09:50:36 PM 35.5639 -91.7578 290° West 436 502 26,000  Level Memphis Center
Thu 09:51:38 PM 35.6153 -91.9239 291° West 436 502 26,000  Level Memphis Center
Thu 09:52:40 PM 35.6553 -92.0614 290° West 435 501 26,000  Level Memphis Center
Thu 09:53:41 PM 35.6969 -92.1997 290° West 434 499 26,000  Level Memphis Center
Thu 09:54:42 PM 35.7369 -92.3372 290° West 434 499 26,000 -244 Level Memphis Center
Thu 09:55:44 PM 35.7775 -92.4756 290° West 434 499 25,500 -732 Descending Memphis Center
Thu 09:56:45 PM 35.8175 -92.6086 290° West 426 490 24,500 -976 Descending Memphis Center
Thu 09:57:47 PM 35.8556 -92.7417 289° West 421 484 23,500 -1,073 Descending Memphis Center
Thu 09:58:48 PM 35.9011 -92.8981 290° West 412 474 22,300 -1,073 Descending Memphis Center
Thu 09:59:50 PM 35.9383 -93.0278 290° West 409 471 21,300 -1,512 Descending Memphis Center
Thu 10:00:51 PM 35.9744 -93.1558 289° West 404 465 19,200 -1,820 Descending Memphis Center
Thu 10:01:52 PM 36.0097 -93.2797 289° West 391 450 17,600 -1,561 Descending Memphis Center
Thu 10:02:54 PM 36.0439 -93.3978 290° West 374 430 16,000 -1,561 Descending Memphis Center
Thu 10:03:55 PM 36.0689 -93.5122 285° West 356 410 14,400 -2,098 Descending Memphis Center
Thu 10:04:57 PM 36.0861 -93.6303 280° West 354 407 11,700 -2,098 Descending Memphis Center
Thu 10:05:58 PM 36.1064 -93.7572 281° West 320 368 10,100 -1,854 Descending Memphis Center
Thu 10:07:00 PM 36.1211 -93.8458 282° West 275 316 7,900 -1,902 Descending Memphis Center
Thu 10:08:01 PM 36.1369 -93.9433 281° West 282 325 6,200 -1,610 Descending Memphis Center
Thu 10:09:03 PM 36.1517 -94.0350 281° West 281 323 4,600 -1,268 Descending Memphis Center
Thu 10:10:04 PM 36.1650 -94.1189 281° West 272 313 3,600 -787 Descending Memphis Center
Thu 10:11:05 PM 36.1767 -94.1914 281° West 236 272 3,000 -293 Descending Memphis Center
Thu 10:12:07 PM 36.1864 -94.2578 280° West 184 212 3,000 -341 Level Memphis Center
Thu 10:13:08 PM 36.2192 -94.2794 332° Northwest 156 180 2,300 -488 Descending Memphis Center
Thu 10:14:10 PM 36.2578 -94.2983 338° Northwest 144 166 2,000 -290 Descending Memphis Center

Login

Don't have an account? Register now (free) for customized features, flight alerts, and more!